Time;durP1;ratioP1;P1;durP2;ratioP2;P2;SDS_P1;SDS_P2;PMS_P1;PMS_P2;Temp;Humidity;BMP_temperature;BMP_pressure;BME280_temperature;BME280_humidity;BME280_pressure;Samples;Min_cycle;Max_cycle;Signal;HPM_P1;HPM_P2
2021/11/10 00:01:49;;;;;;;18.65;10.43;;;3.50;78.00;;;;;;5051421;28;20067;-68
2021/11/10 00:04:14;;;;;;;17.40;9.73;;;3.50;77.90;;;;;;5051014;28;20032;-69
2021/11/10 00:06:40;;;;;;;15.70;9.75;;;3.50;77.80;;;;;;5051515;28;20035;-68
2021/11/10 00:09:06;;;;;;;18.27;9.23;;;3.50;77.90;;;;;;5050606;28;20029;-68
2021/11/10 00:11:33;;;;;;;14.80;8.80;;;3.50;77.70;;;;;;5053594;28;20580;-68
2021/11/10 00:13:59;;;;;;;14.93;9.18;;;3.50;77.80;;;;;;5053241;28;20028;-68
2021/11/10 00:16:25;;;;;;;14.52;9.57;;;3.40;78.00;;;;;;5051933;28;20044;-68
2021/11/10 00:18:51;;;;;;;17.55;9.55;;;3.40;78.00;;;;;;5052691;28;20418;-68
2021/11/10 00:21:19;;;;;;;14.77;9.70;;;3.40;78.00;;;;;;5050213;28;20040;-68
2021/11/10 00:23:45;;;;;;;17.27;9.95;;;3.40;78.00;;;;;;5050895;28;20037;-68
2021/11/10 00:26:10;;;;;;;17.52;9.80;;;3.40;77.80;;;;;;5052620;28;20649;-68
2021/11/10 00:28:36;;;;;;;17.88;10.15;;;3.40;77.90;;;;;;5053756;28;20047;-68
2021/11/10 00:31:01;;;;;;;15.55;10.20;;;3.40;77.80;;;;;;5050139;28;20045;-68
2021/11/10 00:33:27;;;;;;;17.30;10.40;;;3.40;77.90;;;;;;5052079;28;20338;-68
2021/11/10 00:35:53;;;;;;;16.63;10.10;;;3.40;77.90;;;;;;5050653;28;20045;-68
2021/11/10 00:38:18;;;;;;;13.50;9.00;;;3.30;77.70;;;;;;5050865;28;20029;-68
2021/11/10 00:40:44;;;;;;;15.85;9.00;;;3.30;77.90;;;;;;5053920;28;21034;-68
2021/11/10 00:43:10;;;;;;;16.13;9.20;;;3.30;77.80;;;;;;5055054;28;20054;-68
2021/11/10 00:45:36;;;;;;;16.75;9.30;;;3.30;77.80;;;;;;5049604;28;20682;-68
2021/11/10 00:48:02;;;;;;;14.75;9.25;;;3.30;77.80;;;;;;5052511;28;20064;-68
2021/11/10 00:50:28;;;;;;;12.73;8.38;;;3.30;77.80;;;;;;5050535;28;20037;-68
2021/11/10 00:52:53;;;;;;;14.07;8.75;;;3.30;77.60;;;;;;5050735;28;20040;-68
2021/11/10 00:55:19;;;;;;;14.98;10.02;;;3.30;77.50;;;;;;5055867;28;20028;-67
2021/11/10 00:57:44;;;;;;;13.77;8.93;;;3.30;77.40;;;;;;5057499;28;20090;-68
2021/11/10 01:00:11;;;;;;;14.00;8.52;;;3.20;77.50;;;;;;5054538;28;21065;-68
2021/11/10 01:02:36;;;;;;;14.98;10.10;;;3.20;77.70;;;;;;5048812;28;20029;-68
2021/11/10 01:05:03;;;;;;;12.70;8.30;;;3.10;77.90;;;;;;5049957;28;20511;-68
2021/11/10 01:07:29;;;;;;;12.93;8.50;;;3.10;78.10;;;;;;5050032;28;20063;-68
2021/11/10 01:09:58;;;;;;;13.57;8.75;;;3.10;78.30;;;;;;5049702;28;20599;-68
2021/11/10 01:12:24;;;;;;;13.52;9.13;;;3.10;78.40;;;;;;5052278;28;20500;-68
2021/11/10 01:14:50;;;;;;;15.40;8.07;;;3.00;78.30;;;;;;5055386;28;20055;-67
2021/11/10 01:17:16;;;;;;;13.35;8.88;;;3.00;78.30;;;;;;5055058;28;20032;-68
2021/11/10 01:19:41;;;;;;;12.60;8.13;;;3.00;78.40;;;;;;5054257;28;20036;-66
2021/11/10 01:22:07;;;;;;;12.80;8.25;;;3.00;78.30;;;;;;5054246;28;20044;-68
2021/11/10 01:24:33;;;;;;;14.85;8.77;;;3.10;78.50;;;;;;5052462;28;20598;-68
2021/11/10 01:26:59;;;;;;;13.57;8.88;;;3.10;78.40;;;;;;5052757;28;20383;-69
2021/11/10 01:29:24;;;;;;;13.45;8.25;;;3.10;78.40;;;;;;5054690;28;20033;-69
2021/11/10 01:31:50;;;;;;;12.38;8.73;;;3.10;78.40;;;;;;5052490;28;20048;-69
2021/11/10 01:34:16;;;;;;;13.40;8.10;;;3.20;78.30;;;;;;5054712;28;20047;-68
2021/11/10 01:36:41;;;;;;;12.10;7.93;;;3.20;78.10;;;;;;5052405;28;20060;-68
2021/11/10 01:39:09;;;;;;;11.85;8.25;;;3.20;78.00;;;;;;5053638;28;20160;-67
2021/11/10 01:41:55;;;;;;;16.50;9.20;;;3.20;78.10;;;;;;5053798;28;20028;-68
2021/11/10 01:44:26;;;;;;;14.23;9.40;;;3.20;78.30;;;;;;5058253;28;20029;-67
2021/11/10 01:46:53;;;;;;;16.48;9.20;;;3.20;78.20;;;;;;5053833;28;20074;-68
2021/11/10 01:49:19;;;;;;;16.20;9.65;;;3.20;79.00;;;;;;5053876;28;20543;-68
2021/11/10 01:51:51;;;;;;;16.20;9.15;;;3.20;78.10;;;;;;5053425;28;20033;-68
2021/11/10 01:54:22;;;;;;;14.15;9.48;;;3.20;78.20;;;;;;5052415;28;20033;-68
2021/11/10 01:56:48;;;;;;;13.57;8.98;;;3.20;78.20;;;;;;5058540;28;20097;-68
2021/11/10 01:59:37;;;;;;;15.07;9.77;;;3.20;78.10;;;;;;5058868;28;20495;-67
2021/11/10 02:02:11;;;;;;;17.52;10.13;;;3.20;78.30;;;;;;5057037;28;20029;-68
2021/11/10 02:04:39;;;;;;;17.50;9.07;;;3.10;78.10;;;;;;5054211;28;20745;-67
2021/11/10 02:07:05;;;;;;;14.13;9.45;;;3.10;78.30;;;;;;5052489;28;20069;-68
2021/11/10 02:09:31;;;;;;;18.45;9.27;;;3.10;78.50;;;;;;5053111;28;20068;-68
2021/11/10 02:11:58;;;;;;;15.52;9.68;;;3.00;78.50;;;;;;5054054;28;20465;-66
2021/11/10 02:14:26;;;;;;;15.98;9.02;;;3.00;78.50;;;;;;5053199;28;20033;-68
2021/11/10 02:16:53;;;;;;;14.98;9.38;;;3.10;78.50;;;;;;5056744;28;20091;-68
2021/11/10 02:19:20;;;;;;;13.60;9.00;;;3.00;78.50;;;;;;5053934;28;20165;-67
2021/11/10 02:21:49;;;;;;;14.80;9.80;;;3.10;78.50;;;;;;5052671;28;20033;-67
2021/11/10 02:24:16;;;;;;;13.70;9.35;;;3.10;78.50;;;;;;5054340;28;20033;-68
2021/11/10 02:26:43;;;;;;;15.20;9.98;;;3.10;78.40;;;;;;5053680;28;20090;-67
2021/11/10 02:29:22;;;;;;;16.80;9.88;;;3.00;78.30;;;;;;5051927;28;20032;-68
2021/11/10 02:31:49;;;;;;;15.07;9.27;;;3.00;78.50;;;;;;5057039;28;20036;-67
2021/11/10 02:34:14;;;;;;;14.52;9.73;;;3.10;78.40;;;;;;5052622;28;20040;-68
2021/11/10 02:36:41;;;;;;;16.60;9.95;;;3.10;78.20;;;;;;5055184;28;20043;-67
2021/11/10 02:39:10;;;;;;;18.45;9.65;;;3.10;78.10;;;;;;5053882;28;20021;-68
2021/11/10 02:41:37;;;;;;;13.73;9.52;;;3.00;78.00;;;;;;5052028;28;20029;-67
2021/11/10 02:44:05;;;;;;;15.88;9.85;;;3.00;78.00;;;;;;5054132;28;20029;-69
2021/11/10 02:46:32;;;;;;;15.70;9.38;;;3.00;78.20;;;;;;5054417;28;20029;-68
2021/11/10 02:48:58;;;;;;;17.73;9.73;;;3.00;78.30;;;;;;5053923;28;20025;-67
2021/11/10 02:51:24;;;;;;;15.40;9.27;;;2.90;78.40;;;;;;5053840;28;20033;-68
2021/11/10 02:53:50;;;;;;;15.88;9.25;;;3.00;78.50;;;;;;5053114;28;20502;-68
2021/11/10 02:56:16;;;;;;;17.65;9.32;;;2.90;78.50;;;;;;5051255;28;20113;-68
2021/11/10 02:58:42;;;;;;;15.85;9.15;;;2.90;78.60;;;;;;5050033;28;21084;-68
2021/11/10 03:01:08;;;;;;;16.42;9.10;;;2.90;78.60;;;;;;5055733;28;20039;-68
2021/11/10 03:03:34;;;;;;;14.93;9.00;;;3.00;78.60;;;;;;5053161;28;20041;-68
2021/11/10 03:06:00;;;;;;;17.50;9.85;;;3.00;78.50;;;;;;5052228;28;20075;-67
2021/11/10 03:08:26;;;;;;;16.75;10.10;;;3.00;78.50;;;;;;5051241;28;20455;-67
2021/11/10 03:10:52;;;;;;;18.73;10.98;;;3.00;78.30;;;;;;5057128;28;20329;-67
2021/11/10 03:13:18;;;;;;;18.92;11.30;;;3.00;78.50;;;;;;5060847;28;20036;-67
2021/11/10 03:15:45;;;;;;;20.58;11.38;;;2.90;78.70;;;;;;5058243;28;20447;-69
2021/11/10 03:18:12;;;;;;;19.08;10.90;;;2.90;79.00;;;;;;5058538;28;20040;-69
2021/11/10 03:20:38;;;;;;;16.83;10.70;;;2.90;79.30;;;;;;5058039;28;20032;-67
2021/11/10 03:23:05;;;;;;;16.42;10.05;;;2.90;79.30;;;;;;5057151;28;20052;-68
2021/11/10 03:25:31;;;;;;;16.85;9.95;;;2.90;79.30;;;;;;5056049;28;20441;-67
2021/11/10 03:27:57;;;;;;;19.33;9.90;;;2.80;79.20;;;;;;5052105;28;20123;-67
2021/11/10 03:30:23;;;;;;;17.90;10.05;;;2.80;79.20;;;;;;5052129;28;20037;-67
2021/11/10 03:32:51;;;;;;;16.65;10.05;;;2.80;79.10;;;;;;5053730;28;20547;-67
2021/11/10 03:35:17;;;;;;;15.23;9.77;;;2.80;79.10;;;;;;5053213;28;20693;-68
2021/11/10 03:37:43;;;;;;;17.80;11.13;;;2.80;79.20;;;;;;5052259;28;20166;-68
2021/11/10 03:40:09;;;;;;;19.23;11.35;;;2.80;79.20;;;;;;5052454;28;20123;-68
2021/11/10 03:42:35;;;;;;;19.17;10.30;;;2.80;79.30;;;;;;5055653;28;20029;-68
2021/11/10 03:45:00;;;;;;;20.33;11.27;;;2.80;80.30;;;;;;5059284;28;20248;-69
2021/11/10 03:47:26;;;;;;;16.45;9.65;;;2.70;79.40;;;;;;5058992;28;20964;-68
2021/11/10 03:49:52;;;;;;;17.85;10.70;;;2.80;79.50;;;;;;5053325;28;20036;-68
2021/11/10 03:52:19;;;;;;;18.52;10.50;;;2.80;79.40;;;;;;5050931;28;20044;-68
2021/11/10 03:54:45;;;;;;;16.67;11.07;;;2.80;79.40;;;;;;5051724;28;20049;-67
2021/11/10 03:57:12;;;;;;;20.90;11.20;;;2.80;79.50;;;;;;5052576;28;20088;-68
2021/11/10 03:59:38;;;;;;;19.95;11.00;;;2.70;79.50;;;;;;5051448;28;20521;-67
2021/11/10 04:02:09;;;;;;;17.33;10.32;;;2.70;79.30;;;;;;5052570;28;20071;-68
2021/11/10 04:04:34;;;;;;;19.83;10.48;;;2.70;79.30;;;;;;5050628;28;20115;-68
2021/11/10 04:07:00;;;;;;;16.70;10.10;;;2.70;79.30;;;;;;5049966;28;20027;-68
2021/11/10 04:09:26;;;;;;;20.25;11.02;;;2.70;79.50;;;;;;5050121;28;20107;-68
2021/11/10 04:11:52;;;;;;;17.05;10.90;;;2.70;79.50;;;;;;5051017;28;20043;-68
2021/11/10 04:14:18;;;;;;;18.27;10.63;;;2.70;79.20;;;;;;5051378;28;20036;-68
2021/11/10 04:16:44;;;;;;;16.33;10.55;;;2.70;79.30;;;;;;5050951;28;20035;-68
2021/11/10 04:19:10;;;;;;;19.73;10.90;;;2.70;79.40;;;;;;5052404;28;20033;-68
2021/11/10 04:21:35;;;;;;;18.25;10.93;;;2.70;79.30;;;;;;5051569;28;20033;-68
2021/11/10 04:24:01;;;;;;;19.25;10.13;;;2.70;79.20;;;;;;5053249;28;20029;-67
2021/11/10 04:26:36;;;;;;;17.33;10.38;;;2.70;79.20;;;;;;5050444;28;20028;-68
2021/11/10 04:29:02;;;;;;;16.50;9.60;;;2.80;79.30;;;;;;5051655;28;20033;-67
2021/11/10 04:31:28;;;;;;;19.30;10.07;;;2.80;79.30;;;;;;5049317;28;20483;-67
2021/11/10 04:33:54;;;;;;;16.35;10.38;;;2.80;79.30;;;;;;5055609;28;20063;-67
2021/11/10 04:36:21;;;;;;;19.08;10.70;;;2.80;79.20;;;;;;5049874;28;20408;-67
2021/11/10 04:38:47;;;;;;;20.85;10.05;;;2.80;79.20;;;;;;5052145;28;20056;-67
2021/11/10 04:41:14;;;;;;;19.52;10.50;;;2.80;79.10;;;;;;5050793;28;20125;-68
2021/11/10 04:43:40;;;;;;;19.42;10.80;;;2.80;79.00;;;;;;5052762;28;20047;-66
2021/11/10 04:46:20;;;;;;;21.35;11.10;;;2.80;79.00;;;;;;5050049;28;20418;-67
2021/11/10 04:48:46;;;;;;;22.33;12.18;;;2.90;78.80;;;;;;5053998;28;20531;-68
2021/11/10 04:51:12;;;;;;;24.52;11.68;;;2.80;78.60;;;;;;5050496;28;20036;-67
2021/11/10 04:53:42;;;;;;;22.77;11.40;;;2.80;78.50;;;;;;5049891;28;20032;-67
2021/11/10 04:56:08;;;;;;;22.45;12.57;;;2.70;78.80;;;;;;5051569;28;20071;-67
2021/11/10 04:58:35;;;;;;;22.50;11.95;;;2.70;78.60;;;;;;5053013;28;20040;-67
2021/11/10 05:01:01;;;;;;;21.92;11.13;;;2.70;78.60;;;;;;5050794;28;20048;-67
2021/11/10 05:03:27;;;;;;;21.50;11.07;;;2.70;78.60;;;;;;5054479;28;20602;-67
2021/11/10 05:05:53;;;;;;;21.48;11.05;;;2.70;79.50;;;;;;5053844;28;20086;-67
2021/11/10 05:08:19;;;;;;;18.13;11.15;;;2.60;78.70;;;;;;5050994;28;20041;-67
2021/11/10 05:10:45;;;;;;;19.77;11.15;;;2.70;78.80;;;;;;5051635;28;20508;-67
2021/11/10 05:13:10;;;;;;;18.83;12.25;;;2.60;78.80;;;;;;5051683;28;20441;-69
2021/11/10 05:15:36;;;;;;;21.13;12.73;;;2.60;78.80;;;;;;5049410;28;20475;-68
2021/11/10 05:18:02;;;;;;;24.48;12.48;;;2.60;78.80;;;;;;5048978;28;21053;-67
2021/11/10 05:20:27;;;;;;;21.08;12.15;;;2.60;78.70;;;;;;5053017;28;20118;-69
2021/11/10 05:22:53;;;;;;;21.95;12.52;;;2.60;78.80;;;;;;5050081;28;20045;-69
2021/11/10 05:25:19;;;;;;;24.38;12.60;;;2.60;78.80;;;;;;5051109;28;20036;-69
2021/11/10 05:27:46;;;;;;;20.67;12.60;;;2.60;78.60;;;;;;5054356;28;20091;-69
2021/11/10 05:30:12;;;;;;;25.83;12.00;;;2.60;78.70;;;;;;5056121;28;20044;-69
2021/11/10 05:32:39;;;;;;;23.35;11.30;;;2.60;78.70;;;;;;5054718;28;20036;-69
2021/11/10 05:35:06;;;;;;;26.00;11.65;;;2.60;78.60;;;;;;5052200;28;20507;-67
2021/11/10 05:37:32;;;;;;;25.92;11.23;;;2.60;79.70;;;;;;5050845;28;20151;-68
2021/11/10 05:39:57;;;;;;;28.13;11.90;;;2.50;78.80;;;;;;5050319;28;20521;-67
2021/11/10 05:42:25;;;;;;;32.75;12.55;;;2.60;78.80;;;;;;5049970;28;20052;-67
2021/11/10 05:44:52;;;;;;;28.70;12.70;;;2.60;78.90;;;;;;5051255;28;20117;-67
2021/11/10 05:47:18;;;;;;;17.90;11.35;;;2.60;78.70;;;;;;5052572;28;20028;-69
2021/11/10 05:49:43;;;;;;;23.33;12.07;;;2.60;78.60;;;;;;5048129;28;20377;-69
2021/11/10 05:52:10;;;;;;;22.02;12.25;;;2.60;78.70;;;;;;5051128;28;20037;-68
2021/11/10 05:54:37;;;;;;;25.23;11.88;;;2.50;78.60;;;;;;5049090;28;22000;-69
2021/11/10 05:57:04;;;;;;;20.83;11.40;;;2.50;78.60;;;;;;5050264;28;20029;-68
2021/11/10 05:59:29;;;;;;;18.95;11.10;;;2.50;78.80;;;;;;5055635;28;20059;-66
2021/11/10 06:01:56;;;;;;;23.35;11.65;;;2.50;78.80;;;;;;5053925;28;20033;-69
2021/11/10 06:04:22;;;;;;;21.90;11.80;;;2.50;78.90;;;;;;5053369;28;20564;-68
2021/11/10 06:06:48;;;;;;;27.13;13.10;;;2.50;79.10;;;;;;5056182;28;20032;-69
2021/11/10 06:09:14;;;;;;;32.90;15.57;;;2.50;79.10;;;;;;5053215;28;20067;-69
2021/11/10 06:11:41;;;;;;;34.80;16.00;;;2.50;79.10;;;;;;5060623;28;20056;-69
2021/11/10 06:14:07;;;;;;;29.02;12.75;;;2.50;79.10;;;;;;5057653;28;20442;-69
2021/11/10 06:16:33;;;;;;;24.20;12.25;;;2.50;79.00;;;;;;5056666;28;20040;-69
2021/11/10 06:18:58;;;;;;;28.77;11.68;;;2.50;79.00;;;;;;5060749;28;20037;-69
2021/11/10 06:21:24;;;;;;;31.23;12.20;;;2.50;79.00;;;;;;5059685;28;20036;-68
2021/11/10 06:23:50;;;;;;;27.90;12.50;;;2.50;79.00;;;;;;5058052;28;20048;-69
2021/11/10 06:26:16;;;;;;;24.33;12.10;;;2.50;78.80;;;;;;5057242;28;20048;-69
2021/11/10 06:28:41;;;;;;;21.60;11.20;;;2.50;78.80;;;;;;5056455;28;20175;-69
2021/11/10 06:31:07;;;;;;;22.48;12.25;;;2.50;79.00;;;;;;5056197;28;20032;-69
2021/11/10 06:33:32;;;;;;;22.15;11.38;;;2.40;79.00;;;;;;5058968;28;20029;-69
2021/11/10 06:35:58;;;;;;;26.75;11.90;;;2.50;79.20;;;;;;5056812;28;20131;-69
2021/11/10 06:38:25;;;;;;;23.00;11.88;;;2.40;79.20;;;;;;5055833;28;20170;-69
2021/11/10 06:40:50;;;;;;;25.70;12.25;;;2.50;79.20;;;;;;5056662;28;20454;-69
2021/11/10 06:43:16;;;;;;;27.92;12.20;;;2.50;79.20;;;;;;5054550;28;20564;-68
2021/11/10 06:45:42;;;;;;;38.10;13.40;;;2.50;79.00;;;;;;5056870;28;20037;-69
2021/11/10 06:48:07;;;;;;;30.30;13.48;;;2.50;79.00;;;;;;5056127;28;20063;-68
2021/11/10 06:50:33;;;;;;;26.42;12.35;;;2.40;79.10;;;;;;5055246;28;20101;-69
2021/11/10 06:52:59;;;;;;;29.67;12.70;;;2.40;79.30;;;;;;5056631;28;20028;-68
2021/11/10 06:55:25;;;;;;;28.20;12.88;;;2.40;79.70;;;;;;5057683;28;20037;-69
2021/11/10 06:57:50;;;;;;;27.40;13.50;;;2.40;80.00;;;;;;5056019;28;20032;-69
2021/11/10 07:00:17;;;;;;;29.42;12.63;;;2.40;80.00;;;;;;5057501;28;20511;-69
2021/11/10 07:02:43;;;;;;;25.85;12.68;;;2.40;80.20;;;;;;5055287;28;20047;-68
2021/11/10 07:05:10;;;;;;;23.92;12.70;;;2.40;80.20;;;;;;5056259;28;20035;-69
2021/11/10 07:07:35;;;;;;;25.95;12.93;;;2.40;80.40;;;;;;5058914;28;20443;-69
2021/11/10 07:10:01;;;;;;;24.13;13.57;;;2.40;80.50;;;;;;5057353;28;20090;-68
2021/11/10 07:12:27;;;;;;;20.25;12.93;;;2.40;80.70;;;;;;5056260;28;20033;-69
2021/11/10 07:14:53;;;;;;;23.67;14.07;;;2.40;80.70;;;;;;5058392;28;20037;-69
2021/11/10 07:17:18;;;;;;;24.17;13.52;;;2.40;80.70;;;;;;5051126;28;20210;-67
2021/11/10 07:19:44;;;;;;;25.60;13.48;;;2.40;80.80;;;;;;5058460;28;20028;-67
2021/11/10 07:22:10;;;;;;;27.73;14.30;;;2.40;80.90;;;;;;5054694;28;20037;-66
2021/11/10 07:24:36;;;;;;;24.05;13.85;;;2.40;81.00;;;;;;5054024;28;20099;-68
2021/11/10 07:27:02;;;;;;;25.25;12.98;;;2.40;81.00;;;;;;5058630;28;20036;-67
2021/11/10 07:29:28;;;;;;;24.60;13.32;;;2.50;81.20;;;;;;5052184;28;20033;-66
2021/11/10 07:31:55;;;;;;;32.78;17.00;;;2.50;81.20;;;;;;5058129;28;20036;-67
2021/11/10 07:34:20;;;;;;;30.00;17.08;;;2.50;81.30;;;;;;5056009;28;20032;-67
2021/11/10 07:36:46;;;;;;;27.08;14.48;;;2.60;81.40;;;;;;5051201;28;20033;-66
2021/11/10 07:39:12;;;;;;;26.17;14.13;;;2.60;81.60;;;;;;5055015;28;20484;-69
2021/11/10 07:41:38;;;;;;;30.60;15.98;;;2.60;81.40;;;;;;5057684;28;20037;-69
2021/11/10 07:44:04;;;;;;;26.58;13.95;;;2.70;81.50;;;;;;5056229;28;20032;-69
2021/11/10 07:46:33;;;;;;;37.20;13.82;;;2.70;81.60;;;;;;5054766;28;20078;-69
2021/11/10 07:49:00;;;;;;;30.02;14.55;;;2.80;81.70;;;;;;5052772;28;20426;-66
2021/11/10 07:51:26;;;;;;;30.10;14.45;;;2.80;81.60;;;;;;5055046;28;22194;-67
2021/11/10 07:53:54;;;;;;;31.83;13.80;;;2.80;81.70;;;;;;5053719;28;20025;-66
2021/11/10 07:56:20;;;;;;;30.05;15.25;;;2.90;81.60;;;;;;5055531;28;20384;-67
2021/11/10 07:58:45;;;;;;;34.20;15.05;;;2.90;81.40;;;;;;5057171;28;20093;-67
2021/11/10 08:01:11;;;;;;;29.88;14.95;;;3.00;81.40;;;;;;5051356;28;20067;-67
2021/11/10 08:03:37;;;;;;;26.20;13.35;;;3.10;81.40;;;;;;5050926;28;20060;-67
2021/11/10 08:06:03;;;;;;;30.80;14.18;;;3.10;81.20;;;;;;5051721;28;20037;-69
2021/11/10 08:08:30;;;;;;;24.27;13.98;;;3.10;82.00;;;;;;5050242;28;20045;-69
2021/11/10 08:10:59;;;;;;;23.65;13.00;;;3.20;81.20;;;;;;5057146;28;20129;-70
2021/11/10 08:13:25;;;;;;;24.13;13.05;;;3.20;81.30;;;;;;5052062;28;20028;-69
2021/11/10 08:15:53;;;;;;;23.60;13.20;;;3.20;81.30;;;;;;5053394;28;20403;-69
2021/11/10 08:18:19;;;;;;;19.55;12.32;;;3.30;81.30;;;;;;5051350;28;20112;-69
2021/11/10 08:20:44;;;;;;;17.77;11.88;;;3.30;81.30;;;;;;5057325;28;20127;-69
2021/11/10 08:23:13;;;;;;;21.42;11.18;;;3.40;81.40;;;;;;5052964;28;20046;-69
2021/11/10 08:25:39;;;;;;;19.58;11.35;;;3.40;81.60;;;;;;5054395;28;20106;-68
2021/11/10 08:28:04;;;;;;;19.73;11.73;;;3.50;81.60;;;;;;5049322;28;20135;-68
2021/11/10 08:30:30;;;;;;;25.00;13.88;;;3.50;81.50;;;;;;5050801;28;20039;-68
2021/11/10 08:32:56;;;;;;;25.00;14.05;;;3.60;81.60;;;;;;5051395;28;20089;-69
2021/11/10 08:35:22;;;;;;;27.02;14.63;;;3.60;81.40;;;;;;5055387;28;20059;-68
2021/11/10 08:37:51;;;;;;;24.23;14.05;;;3.70;81.40;;;;;;5049533;28;20029;-69
2021/11/10 08:40:16;;;;;;;23.35;14.02;;;3.70;81.40;;;;;;5052717;28;20072;-69
2021/11/10 08:42:42;;;;;;;26.45;14.52;;;3.80;81.40;;;;;;5057181;28;20028;-69
2021/11/10 08:45:29;;;;;;;22.10;13.07;;;3.80;81.30;;;;;;5051997;28;20041;-69
2021/11/10 08:47:57;;;;;;;25.95;14.45;;;3.80;81.30;;;;;;5052252;28;20156;-69
2021/11/10 08:50:26;;;;;;;30.77;14.75;;;3.90;81.30;;;;;;5051136;28;20380;-69
2021/11/10 08:52:52;;;;;;;36.63;17.60;;;4.00;81.50;;;;;;5050983;28;20043;-69
2021/11/10 08:55:18;;;;;;;28.02;15.98;;;4.00;81.40;;;;;;5051480;28;20116;-68
2021/11/10 08:57:45;;;;;;;28.35;14.65;;;4.10;81.30;;;;;;5051503;28;20062;-69
2021/11/10 09:00:15;;;;;;;28.92;15.32;;;4.10;81.30;;;;;;5050773;28;20033;-69
2021/11/10 09:02:41;;;;;;;23.48;13.52;;;4.20;81.30;;;;;;5048238;28;20033;-69
2021/11/10 09:05:08;;;;;;;26.98;14.15;;;4.20;81.20;;;;;;5052129;28;20041;-69
2021/11/10 09:07:34;;;;;;;28.58;14.50;;;4.30;81.10;;;;;;5052144;28;20098;-69
2021/11/10 09:10:00;;;;;;;25.55;14.20;;;4.30;81.00;;;;;;5051843;28;20057;-69
2021/11/10 09:12:26;;;;;;;25.25;13.80;;;4.40;81.10;;;;;;5054573;28;20503;-69
2021/11/10 09:14:52;;;;;;;28.38;14.23;;;4.40;80.90;;;;;;5054179;28;20164;-69
2021/11/10 09:17:18;;;;;;;24.13;13.85;;;4.50;81.80;;;;;;5050371;28;20081;-69
2021/11/10 09:19:43;;;;;;;22.92;13.85;;;4.50;80.90;;;;;;5049007;28;20538;-68
2021/11/10 09:22:09;;;;;;;26.38;15.73;;;4.50;80.80;;;;;;5051271;28;20040;-69
2021/11/10 09:24:36;;;;;;;24.30;13.63;;;4.50;80.90;;;;;;5052466;28;20068;-69
2021/11/10 09:27:03;;;;;;;23.25;14.48;;;4.50;80.80;;;;;;5055783;28;20041;-69
2021/11/10 09:29:30;;;;;;;23.10;14.43;;;4.60;80.90;;;;;;5050828;28;20526;-68
2021/11/10 09:31:56;;;;;;;24.65;15.82;;;4.60;81.00;;;;;;5051360;28;20041;-69
2021/11/10 09:34:22;;;;;;;27.63;15.70;;;4.60;80.80;;;;;;5054205;28;20037;-69
2021/11/10 09:36:48;;;;;;;28.25;15.55;;;4.60;80.80;;;;;;5054588;28;20047;-69
2021/11/10 09:39:15;;;;;;;20.67;14.25;;;4.60;81.10;;;;;;5055333;28;20029;-69
2021/11/10 09:41:44;;;;;;;22.67;14.55;;;4.70;81.30;;;;;;5055577;28;20461;-69
2021/11/10 09:44:11;;;;;;;28.15;15.73;;;4.70;81.40;;;;;;5055948;28;20040;-69
2021/11/10 09:46:39;;;;;;;27.90;15.95;;;4.70;81.30;;;;;;5057484;28;20163;-69
2021/11/10 09:49:05;;;;;;;26.80;15.23;;;4.70;81.10;;;;;;5054918;28;20035;-69
2021/11/10 09:51:31;;;;;;;22.70;14.82;;;4.70;80.90;;;;;;5055634;28;20077;-67
2021/11/10 09:53:58;;;;;;;27.40;16.13;;;4.70;81.00;;;;;;5055561;28;20033;-69
2021/11/10 09:56:24;;;;;;;21.35;14.60;;;4.80;81.10;;;;;;5052773;28;20378;-69
2021/11/10 09:58:51;;;;;;;24.83;15.60;;;4.80;81.30;;;;;;5057114;28;20047;-69
2021/11/10 10:01:18;;;;;;;22.83;15.50;;;4.80;81.30;;;;;;5054801;28;20029;-69
2021/11/10 10:03:46;;;;;;;25.63;14.95;;;4.90;81.30;;;;;;5054750;28;20053;-69
2021/11/10 10:06:13;;;;;;;25.17;15.00;;;4.90;81.40;;;;;;5055015;28;20051;-69
2021/11/10 10:08:40;;;;;;;23.20;15.50;;;5.00;81.40;;;;;;5055985;28;20052;-69
2021/11/10 10:11:06;;;;;;;25.08;15.50;;;5.00;81.30;;;;;;5053278;28;20553;-68
2021/11/10 10:13:31;;;;;;;23.90;15.13;;;5.00;81.30;;;;;;5056056;28;20063;-69
2021/11/10 10:15:57;;;;;;;25.95;15.30;;;5.10;81.20;;;;;;5054676;28;20028;-68
2021/11/10 10:18:26;;;;;;;21.67;15.50;;;5.10;81.30;;;;;;5057050;28;20028;-70
2021/11/10 10:21:06;;;;;;;22.83;14.35;;;5.20;81.30;;;;;;5054875;28;20604;-67
2021/11/10 10:23:34;;;;;;;22.85;14.93;;;5.20;81.40;;;;;;5053458;28;20037;-69
2021/11/10 10:26:17;;;;;;;25.75;15.30;;;5.30;81.40;;;;;;5054507;28;20082;-69
2021/11/10 10:28:47;;;;;;;28.38;16.25;;;5.30;81.50;;;;;;5054664;28;20056;-69
2021/11/10 10:31:25;;;;;;;29.75;15.27;;;5.40;81.40;;;;;;5054682;28;20166;-69
2021/11/10 10:33:54;;;;;;;26.75;16.42;;;5.50;82.30;;;;;;5053452;28;20136;-69
2021/11/10 10:36:23;;;;;;;29.13;15.75;;;5.60;81.30;;;;;;5053900;28;20161;-69
2021/11/10 10:38:52;;;;;;;25.77;16.10;;;5.60;81.30;;;;;;5053229;28;20032;-70
2021/11/10 10:41:32;;;;;;;27.90;17.52;;;5.70;81.20;;;;;;5053751;28;20075;-69
2021/11/10 10:44:10;;;;;;;32.17;17.75;;;5.80;81.00;;;;;;5055316;28;20101;-68
2021/11/10 10:46:38;;;;;;;34.72;18.90;;;5.80;81.00;;;;;;5053770;28;20032;-69
2021/11/10 10:49:19;;;;;;;29.30;17.85;;;5.90;81.00;;;;;;5055747;28;20500;-69
2021/11/10 10:52:07;;;;;;;25.67;17.02;;;6.00;80.80;;;;;;5059986;28;20683;-69
2021/11/10 10:54:32;;;;;;;27.38;16.38;;;6.00;80.70;;;;;;5052668;28;20090;-69
2021/11/10 10:57:00;;;;;;;28.85;17.35;;;6.10;80.90;;;;;;5052238;28;20032;-69
2021/11/10 10:59:28;;;;;;;34.25;17.67;;;6.20;80.90;;;;;;5056665;28;20048;-69
2021/11/10 11:01:56;;;;;;;32.10;17.80;;;6.20;81.00;;;;;;5053484;28;20029;-70
2021/11/10 11:04:27;;;;;;;26.25;17.23;;;6.30;81.30;;;;;;5051875;28;20084;-69
2021/11/10 11:06:56;;;;;;;27.00;17.75;;;6.40;81.60;;;;;;5052125;28;20496;-69
2021/11/10 11:09:26;;;;;;;27.30;18.17;;;6.50;81.40;;;;;;5053145;28;20097;-69
2021/11/10 11:12:08;;;;;;;32.92;19.45;;;6.60;81.40;;;;;;5053137;28;20052;-69
2021/11/10 11:14:55;;;;;;;31.27;19.90;;;6.80;81.50;;;;;;5054353;28;20058;-68
2021/11/10 11:17:35;;;;;;;34.38;21.13;;;6.90;81.30;;;;;;5052704;28;20568;-67
2021/11/10 11:20:09;;;;;;;28.38;19.23;;;7.10;80.60;;;;;;5053720;28;20029;-67
2021/11/10 11:22:43;;;;;;;30.65;18.33;;;7.10;80.30;;;;;;5050979;28;20411;-67
2021/11/10 11:25:08;;;;;;;28.33;19.07;;;7.20;80.10;;;;;;5053221;28;20082;-67
2021/11/10 11:27:34;;;;;;;28.33;17.77;;;7.20;80.10;;;;;;5053666;28;20036;-67
2021/11/10 11:30:12;;;;;;;31.45;19.23;;;7.20;80.00;;;;;;5055506;28;20085;-68
2021/11/10 11:32:43;;;;;;;25.38;17.13;;;7.30;80.00;;;;;;5052614;28;20112;-67
2021/11/10 11:35:40;;;;;;;27.88;17.80;;;7.30;80.00;;;;;;5054633;28;20041;-67
2021/11/10 11:38:15;;;;;;;24.60;16.25;;;7.40;79.80;;;;;;5052213;28;20211;-67
2021/11/10 11:40:43;;;;;;;26.10;16.83;;;7.50;79.80;;;;;;5053272;28;20029;-67
2021/11/10 11:43:12;;;;;;;24.58;16.65;;;7.50;79.60;;;;;;5055138;28;20060;-67
2021/11/10 11:45:41;;;;;;;24.95;17.02;;;7.60;79.50;;;;;;5056565;28;20091;-67
2021/11/10 11:48:08;;;;;;;29.13;17.85;;;7.60;79.40;;;;;;5052871;28;20236;-67
2021/11/10 11:50:35;;;;;;;26.85;17.33;;;7.70;79.30;;;;;;5054515;28;20040;-67
2021/11/10 11:53:01;;;;;;;29.88;18.27;;;7.70;79.30;;;;;;5058797;28;20033;-67
2021/11/10 11:55:40;;;;;;;27.33;17.08;;;7.80;79.30;;;;;;5058000;28;20029;-67
2021/11/10 11:58:21;;;;;;;31.50;19.25;;;7.80;79.10;;;;;;5058450;28;20055;-65
2021/11/10 12:00:55;;;;;;;30.20;18.73;;;7.80;79.10;;;;;;5057732;28;20040;-67
2021/11/10 12:03:26;;;;;;;29.83;18.75;;;7.90;79.20;;;;;;5058747;28;20033;-68
2021/11/10 12:06:01;;;;;;;28.80;18.55;;;7.90;79.10;;;;;;5057990;28;20058;-68
2021/11/10 12:08:45;;;;;;;34.03;17.98;;;8.00;78.80;;;;;;5057721;28;20405;-67
2021/11/10 12:11:40;;;;;;;30.00;17.70;;;8.00;78.70;;;;;;5058707;28;20033;-67
2021/11/10 12:14:21;;;;;;;29.23;18.38;;;8.10;78.90;;;;;;5058535;28;20049;-67
2021/11/10 12:17:04;;;;;;;28.90;18.42;;;8.10;78.60;;;;;;5057563;28;20090;-68
2021/11/10 12:19:37;;;;;;;31.23;18.67;;;8.20;78.30;;;;;;5058788;28;20033;-68
2021/11/10 12:22:18;;;;;;;30.65;18.73;;;8.20;78.20;;;;;;5057842;28;20396;-68
2021/11/10 12:25:00;;;;;;;31.98;17.88;;;8.20;77.90;;;;;;5057529;28;20036;-67
2021/11/10 12:27:40;;;;;;;27.65;18.33;;;8.30;78.00;;;;;;5058045;28;20503;-67
2021/11/10 12:30:27;;;;;;;28.08;17.70;;;8.30;78.90;;;;;;5058152;28;20539;-68
2021/11/10 12:32:58;;;;;;;30.55;18.80;;;8.40;78.20;;;;;;5057291;28;20029;-68
2021/11/10 12:35:43;;;;;;;27.35;18.55;;;8.40;78.00;;;;;;5056616;28;20039;-67
2021/11/10 12:38:14;;;;;;;;;;;8.40;77.60;;;;;;5058933;28;20073;-68
2021/11/10 12:40:53;;;;;;;26.45;17.45;;;8.50;77.70;;;;;;5056921;28;20455;-68
2021/11/10 12:43:22;;;;;;;27.88;17.02;;;8.50;77.90;;;;;;5058998;28;20064;-69
2021/11/10 12:45:50;;;;;;;26.80;17.73;;;8.50;78.00;;;;;;5057778;28;20017;-68